ADDS METAR Data INFO
IDs: Format: Raw Decoded Include TAF

Data at: 0931 UTC 25 Jun 2018

KFYG 250855Z AUTO 04003KT 10SM CLR 19/19 A2996 RMK AO2
KFYG 250835Z AUTO 00000KT 8SM CLR 19/19 A2996 RMK AO2
KFYG 250815Z AUTO 34003KT 9SM CLR 19/19 A2996 RMK AO2
KFYG 250755Z AUTO 32003KT 9SM CLR 20/20 A2994 RMK AO2
KFYG 250735Z AUTO 00000KT 10SM CLR 20/20 A2994 RMK AO2
KFYG 250715Z AUTO 08004KT 10SM CLR 20/20 A2993 RMK AO2
KFYG 250655Z AUTO 15003KT 10SM CLR 20/20 A2994 RMK AO2
KFYG 250635Z AUTO 16003KT 10SM CLR 20/20 A2994 RMK AO2
KFYG 250615Z AUTO 10004KT 10SM CLR 20/20 A2994 RMK AO2
KFYG 250555Z AUTO 15003KT 10SM FEW024 20/20 A2995 RMK AO2
KFYG 250535Z AUTO 13003KT 10SM FEW024 20/20 A2995 RMK AO2
KFYG 250515Z AUTO 13003KT 10SM CLR 20/20 A2994 RMK AO2
KFYG 250455Z AUTO 18003KT 10SM CLR 20/20 A2992 RMK AO2
KFYG 250435Z AUTO 06005KT 10SM CLR 21/20 A2991 RMK AO2
KFYG 250415Z AUTO 03006KT 10SM CLR 20/20 A2991 RMK AO2
KFYG 250355Z AUTO 00000KT 10SM CLR 21/20 A2992 RMK AO2
KFYG 250335Z AUTO 00000KT 10SM CLR 21/21 A2991 RMK AO2
KFYG 250315Z AUTO 06004KT 10SM CLR 21/21 A2992 RMK AO2
KFYG 250255Z AUTO 00000KT 10SM CLR 22/22 A2994 RMK AO2
KFYG 250235Z AUTO 09003KT 10SM CLR 22/21 A2995 RMK AO2
KFYG 250215Z AUTO 10003KT 10SM FEW031 FEW070 22/22 A2995 RMK AO2
KFYG 250155Z AUTO 10003KT 10SM FEW031 FEW070 22/22 A2996 RMK AO2
KFYG 250135Z AUTO 13003KT 10SM CLR 22/22 A2995 RMK AO2
KFYG 250115Z AUTO 12004KT 10SM CLR 23/22 A2994 RMK AO2
KFYG 250055Z AUTO 10003KT 10SM CLR 23/22 A2994 RMK AO2
KFYG 250035Z AUTO 12003KT 9SM CLR 23/23 A2992 RMK AO2
KFYG 250015Z AUTO 00000KT 10SM CLR 23/22 A2991 RMK AO2
KFYG 242355Z AUTO 00000KT 10SM FEW070 23/23 A2990 RMK AO2
KFYG 242335Z AUTO 00000KT 10SM SCT040 SCT060 BKN070 23/22 A2991 RMK AO2
KFYG 242315Z AUTO 00000KT 10SM SCT040 23/23 A2991 RMK AO2
KFYG 242255Z AUTO 00000KT 10SM CLR 23/22 A2990 RMK AO2
KFYG 242235Z AUTO 00000KT 10SM FEW022 FEW030 22/22 A2990 RMK AO2
KFYG 242215Z AUTO 00000KT 1 1/2SM -RA SCT022 BKN027 OVC039 23/20 A2990 RMK AO2
KFYG 242155Z AUTO 13010KT 9SM BKN026 BKN038 25/20 A2992 RMK AO2 LTG DSNT E
KFYG 242135Z AUTO 18007KT 10SM CLR 27/22 A2991 RMK AO2 LTG DSNT E AND SE
KFYG 242115Z AUTO 18003KT 10SM CLR 27/21 A2991 RMK AO2
KFYG 242055Z AUTO 00000KT 10SM CLR 27/22 A2991 RMK AO2
KFYG 242035Z AUTO 17003KT 10SM FEW100 27/22 A2991 RMK AO2
KFYG 242015Z AUTO 19005KT 10SM SCT060 27/22 A2991 RMK AO2
KFYG 241955Z AUTO 17003KT 10SM SCT060 27/22 A2991 RMK AO2
KFYG 241935Z AUTO 00000KT 10SM FEW060 27/21 A2991 RMK AO2
KFYG 241915Z AUTO 20003KT 10SM FEW060 27/21 A2991 RMK AO2
KFYG 241855Z AUTO 14006KT 10SM SCT060 SCT075 27/22 A2992 RMK AO2
KFYG 241835Z AUTO 17008G14KT 10SM FEW050 28/22 A2992 RMK AO2
KFYG 241815Z AUTO 13005KT 10SM SCT060 SCT070 28/21 A2993 RMK AO2
KFYG 241755Z AUTO 12004KT 10SM SCT060 BKN070 27/22 A2993 RMK AO2
KFYG 241735Z AUTO 15008KT 110V170 10SM FEW060 27/22 A2993 RMK AO2
KFYG 241715Z AUTO 10004KT 10SM FEW070 27/22 A2993 RMK AO2
KFYG 241655Z AUTO 10004KT 10SM FEW070 27/22 A2993 RMK AO2
KFYG 241635Z AUTO 13004KT 10SM CLR 28/22 A2992 RMK AO2
KFYG 241615Z AUTO 11004KT 10SM CLR 28/21 A2992 RMK AO2
KFYG 241555Z AUTO 12005KT 10SM CLR 27/21 A2991 RMK AO2
KFYG 241535Z AUTO 14005KT 10SM CLR 27/22 A2992 RMK AO2
KFYG 241515Z AUTO 14006KT 10SM CLR 27/22 A2991 RMK AO2
KFYG 241455Z AUTO 14006KT 10SM CLR 27/22 A2991 RMK AO2
KFYG 241435Z AUTO 13005KT 10SM CLR 26/22 A2990 RMK AO2
KFYG 241415Z AUTO 15006KT 10SM CLR 25/22 A2990 RMK AO2
KFYG 241355Z AUTO 15004KT 10SM CLR 25/22 A2991 RMK AO2
KFYG 241335Z AUTO 04003KT 10SM CLR 24/21 A2990 RMK AO2
KFYG 241315Z AUTO 00000KT 10SM CLR 23/21 A2991 RMK AO2
KFYG 241255Z AUTO 15004KT 10SM CLR 23/21 A2991 RMK AO2
KFYG 241235Z AUTO 14003KT 10SM CLR 22/21 A2990 RMK AO2
KFYG 241215Z AUTO 14003KT 10SM CLR 22/21 A2989 RMK AO2
KFYG 241155Z AUTO 00000KT 8SM CLR 20/20 A2989 RMK AO2
KFYG 241135Z AUTO 00000KT 7SM CLR 19/19 A2989 RMK AO2
KFYG 241115Z AUTO 00000KT 5SM BR CLR 18/18 A2988 RMK AO2
KFYG 241055Z AUTO 00000KT 6SM BR CLR 18/18 A2988 RMK AO2
KFYG 241035Z AUTO 00000KT 4SM BR CLR 18/18 A2989 RMK AO2
KFYG 241015Z AUTO 00000KT 9SM CLR 17/17 A2988 RMK AO2
KFYG 240955Z AUTO 00000KT 10SM CLR 18/18 A2985 RMK AO2
KFYG 240935Z AUTO 00000KT 10SM CLR 18/18 A2985 RMK AO2
KFYG 240915Z AUTO 00000KT 6SM BR CLR 18/18 A2986 RMK AO2
KFYG 240855Z AUTO 00000KT 7SM CLR 18/18 A2987 RMK AO2
KFYG 240835Z AUTO 00000KT 6SM BR CLR 17/17 A2987 RMK AO2
KFYG 240815Z AUTO 00000KT 5SM BR CLR 18/18 A2987 RMK AO2
KFYG 240755Z AUTO 00000KT 5SM BR FEW060 18/18 A2987 RMK AO2
KFYG 240735Z AUTO 00000KT 9SM CLR 18/18 A2987 RMK AO2
KFYG 240715Z AUTO 00000KT 8SM CLR 18/18 A2986 RMK AO2
KFYG 240655Z AUTO 00000KT 10SM CLR 19/19 A2985 RMK AO2
KFYG 240635Z AUTO 00000KT 10SM CLR 19/19 A2985 RMK AO2
KFYG 240615Z AUTO 00000KT 10SM CLR 18/18 A2985 RMK AO2
KFYG 240555Z AUTO 00000KT 10SM CLR 19/19 A2984 RMK AO2
KFYG 240535Z AUTO 00000KT 9SM CLR 19/19 A2985 RMK AO2
KFYG 240515Z AUTO 00000KT 10SM CLR 19/19 A2985 RMK AO2
KFYG 240455Z AUTO 00000KT 10SM CLR 19/19 A2984 RMK AO2
KFYG 240435Z AUTO 00000KT 10SM CLR 19/19 A2984 RMK AO2
KFYG 240415Z AUTO 00000KT 10SM CLR 19/19 A2985 RMK AO2
KFYG 240355Z AUTO 00000KT 10SM CLR 20/19 A2984 RMK AO2
KFYG 240335Z AUTO 00000KT 10SM CLR 20/20 A2984 RMK AO2
KFYG 240315Z AUTO 00000KT 10SM CLR 20/20 A2984 RMK AO2
KFYG 240255Z AUTO 00000KT 10SM CLR 20/20 A2984 RMK AO2
KFYG 240235Z AUTO 00000KT 10SM FEW046 20/20 A2983 RMK AO2
KFYG 240215Z AUTO 00000KT 10SM SCT048 21/20 A2982 RMK AO2
KFYG 240155Z AUTO 00000KT 10SM CLR 21/19 A2981 RMK AO2
KFYG 240135Z AUTO 00000KT 10SM CLR 22/19 A2980 RMK AO2
KFYG 240115Z AUTO 00000KT 10SM CLR 23/19 A2980 RMK AO2
KFYG 240055Z AUTO 00000KT 10SM CLR 23/19 A2979 RMK AO2
KFYG 240035Z AUTO 00000KT 10SM CLR 24/20 A2979 RMK AO2
KFYG 240015Z AUTO 00000KT 10SM CLR 26/19 A2980 RMK AO2
KFYG 232355Z AUTO 28003KT 10SM CLR 27/18 A2979 RMK AO2
KFYG 232335Z AUTO 26003KT 10SM CLR 27/18 A2979 RMK AO2
KFYG 232315Z AUTO 25003KT 10SM CLR 27/19 A2978 RMK AO2
KFYG 232255Z AUTO 29003KT 10SM CLR 27/18 A2978 RMK AO2
KFYG 232235Z AUTO 28004KT 10SM CLR 27/18 A2978 RMK AO2
KFYG 232215Z AUTO 29003KT 10SM CLR 27/19 A2978 RMK AO2
KFYG 232155Z AUTO 26003KT 10SM FEW060 27/18 A2978 RMK AO2
KFYG 232135Z AUTO 30005KT 10SM BKN060 27/19 A2978 RMK AO2